createdAt,value
2019-03-05T00:01:47.202Z,1.22
2019-03-05T00:04:18.007Z,1.13
2019-03-05T00:06:48.623Z,1.23
2019-03-05T00:09:22.280Z,1.20
2019-03-05T00:11:53.532Z,0.90
2019-03-05T00:14:24.474Z,1.00
2019-03-05T00:16:55.118Z,1.20
2019-03-05T00:19:26.005Z,1.07
2019-03-05T00:21:56.631Z,1.07
2019-03-05T00:25:07.127Z,1.10
2019-03-05T00:27:50.484Z,1.40
2019-03-05T00:30:38.444Z,1.30
2019-03-05T00:33:49.676Z,1.30
2019-03-05T00:37:01.832Z,1.53
2019-03-05T00:40:20.722Z,1.03
2019-03-05T00:43:29.534Z,0.72
2019-03-05T00:46:38.711Z,1.03
2019-03-05T00:50:36.678Z,0.93
2019-03-05T00:53:41.164Z,1.20
2019-03-05T00:56:57.634Z,1.30
2019-03-05T01:00:12.126Z,0.80
2019-03-05T01:03:51.593Z,0.93
2019-03-05T01:06:26.034Z,0.70
2019-03-05T01:08:57.750Z,1.00
2019-03-05T01:11:28.653Z,0.87
2019-03-05T01:13:59.922Z,1.10
2019-03-05T01:16:32.503Z,1.13
2019-03-05T01:19:03.261Z,1.57
2019-03-05T01:21:34.143Z,1.30
2019-03-05T01:24:05.373Z,1.40
2019-03-05T01:26:36.222Z,0.90
2019-03-05T01:29:06.962Z,1.30
2019-03-05T01:31:58.408Z,0.83
2019-03-05T01:34:51.176Z,1.20
2019-03-05T01:37:21.869Z,1.10
2019-03-05T01:40:07.312Z,1.40
2019-03-05T01:42:39.575Z,0.82
2019-03-05T01:45:12.752Z,0.70
2019-03-05T01:47:43.647Z,1.50
2019-03-05T01:50:15.309Z,0.80
2019-03-05T01:52:45.959Z,1.10
2019-03-05T01:55:16.612Z,1.20
2019-03-05T01:57:47.296Z,0.95
2019-03-05T02:00:18.023Z,1.10
2019-03-05T02:02:48.953Z,1.00
2019-03-05T02:05:20.639Z,1.13
2019-03-05T02:07:51.971Z,0.80
2019-03-05T02:10:23.424Z,0.93
2019-03-05T02:12:54.270Z,0.80
2019-03-05T02:15:24.994Z,0.87
2019-03-05T02:17:55.608Z,0.80
2019-03-05T02:20:27.164Z,0.97
2019-03-05T02:23:21.867Z,0.80
2019-03-05T02:26:31.927Z,0.80
2019-03-05T02:29:40.840Z,1.00
2019-03-05T02:33:18.351Z,0.90
2019-03-05T02:37:01.820Z,1.00
2019-03-05T02:40:46.884Z,0.90
2019-03-05T02:44:24.998Z,0.77
2019-03-05T02:47:48.644Z,1.20
2019-03-05T02:51:05.237Z,1.27
2019-03-05T02:54:06.287Z,0.77
2019-03-05T02:57:07.518Z,1.00
2019-03-05T02:59:40.232Z,1.16
2019-03-05T03:02:28.750Z,0.80
2019-03-05T03:05:21.590Z,0.90
2019-03-05T03:07:52.568Z,0.80
2019-03-05T03:10:27.958Z,0.82
2019-03-05T03:12:58.548Z,1.17
2019-03-05T03:15:29.447Z,0.60
2019-03-05T03:18:00.182Z,0.50
2019-03-05T03:20:30.769Z,0.87
2019-03-05T03:23:01.603Z,0.87
2019-03-05T03:25:32.623Z,0.73
2019-03-05T03:28:03.427Z,1.03
2019-03-05T03:30:34.038Z,1.07
2019-03-05T03:33:04.669Z,0.90
2019-03-05T03:35:35.219Z,1.23
2019-03-05T03:38:05.853Z,0.73
2019-03-05T03:40:36.636Z,0.90
2019-03-05T03:43:07.492Z,0.87
2019-03-05T03:45:39.814Z,1.18
2019-03-05T03:48:10.577Z,0.90
2019-03-05T03:50:41.710Z,1.20
2019-03-05T03:53:12.565Z,0.80
2019-03-05T03:55:43.218Z,0.73
2019-03-05T03:58:13.812Z,0.90
2019-03-05T04:00:44.567Z,0.80
2019-03-05T04:03:15.455Z,0.95
2019-03-05T04:05:46.047Z,0.80
2019-03-05T04:08:16.694Z,0.50
2019-03-05T04:10:47.570Z,1.00
2019-03-05T04:13:18.341Z,0.90
2019-03-05T04:15:48.996Z,0.93
2019-03-05T04:18:19.684Z,0.93
2019-03-05T04:20:52.705Z,0.70
2019-03-05T04:23:23.277Z,0.70
2019-03-05T04:25:53.902Z,1.10
2019-03-05T04:28:25.979Z,1.07
2019-03-05T04:30:56.622Z,1.03
2019-03-05T04:33:27.511Z,1.02
2019-03-05T04:35:58.097Z,0.80
2019-03-05T04:38:28.796Z,0.90
2019-03-05T04:40:59.396Z,1.00
2019-03-05T04:43:30.013Z,0.70
2019-03-05T04:46:05.570Z,0.67
2019-03-05T04:48:36.186Z,1.10
2019-03-05T04:51:28.551Z,0.80
2019-03-05T04:53:59.164Z,0.97
2019-03-05T04:56:29.771Z,0.73
2019-03-05T04:59:00.360Z,0.93
2019-03-05T05:01:30.982Z,1.13
2019-03-05T05:04:01.992Z,0.87
2019-03-05T05:06:32.767Z,1.07
2019-03-05T05:09:03.981Z,0.90
2019-03-05T05:11:34.812Z,0.87
2019-03-05T05:14:05.440Z,1.53
2019-03-05T05:16:36.088Z,1.07
2019-03-05T05:19:06.773Z,1.30
2019-03-05T05:21:37.375Z,0.90
2019-03-05T05:24:08.032Z,0.83
2019-03-05T05:26:40.141Z,1.32
2019-03-05T05:29:10.970Z,1.10
2019-03-05T05:31:41.873Z,0.90
2019-03-05T05:34:12.827Z,0.70
2019-03-05T05:36:43.705Z,1.25
2019-03-05T05:40:21.099Z,0.90
2019-03-05T05:42:52.146Z,0.90
2019-03-05T05:45:24.695Z,0.80
2019-03-05T05:47:56.037Z,0.83
2019-03-05T05:50:26.905Z,0.60
2019-03-05T05:52:57.517Z,1.03
2019-03-05T05:55:28.085Z,1.10
2019-03-05T05:57:59.054Z,1.23
2019-03-05T06:00:30.258Z,0.90
2019-03-05T06:03:00.894Z,1.00
2019-03-05T06:05:31.588Z,1.10
2019-03-05T06:08:02.249Z,1.00
2019-03-05T06:10:32.939Z,1.50
2019-03-05T06:13:03.896Z,1.60
2019-03-05T06:15:34.810Z,1.20
2019-03-05T06:18:05.497Z,1.50
2019-03-05T06:20:36.089Z,0.93
2019-03-05T06:23:07.193Z,0.93
2019-03-05T06:25:37.933Z,1.00
2019-03-05T06:28:08.795Z,0.90
2019-03-05T06:30:40.493Z,1.05
2019-03-05T06:33:11.135Z,1.07
2019-03-05T06:35:42.320Z,0.85
2019-03-05T06:38:13.108Z,1.27
2019-03-05T06:40:43.977Z,1.00
2019-03-05T06:43:14.576Z,1.10
2019-03-05T06:45:45.181Z,1.40
2019-03-05T06:48:16.022Z,1.63
2019-03-05T06:50:46.638Z,1.35
2019-03-05T06:53:17.270Z,1.43
2019-03-05T06:55:48.413Z,1.20
2019-03-05T06:58:19.015Z,1.10
2019-03-05T07:00:49.673Z,1.00
2019-03-05T07:03:20.238Z,1.10
2019-03-05T07:06:45.364Z,0.90
2019-03-05T07:09:55.956Z,0.90
2019-03-05T07:13:04.980Z,1.43
2019-03-05T07:16:29.580Z,0.50
2019-03-05T07:19:33.809Z,1.10
2019-03-05T07:22:39.294Z,1.00
2019-03-05T07:25:10.380Z,1.10
2019-03-05T07:27:48.808Z,1.17
2019-03-05T07:30:24.616Z,0.90
2019-03-05T07:32:57.016Z,1.30
2019-03-05T07:35:29.861Z,0.90
2019-03-05T07:38:00.506Z,0.80
2019-03-05T07:40:31.208Z,0.80
2019-03-05T07:43:02.157Z,1.00
2019-03-05T07:45:32.819Z,0.80
2019-03-05T07:48:06.882Z,0.90
2019-03-05T07:50:37.545Z,0.73
2019-03-05T07:53:08.333Z,0.73
2019-03-05T07:55:40.556Z,1.00
2019-03-05T07:58:11.147Z,0.60
2019-03-05T08:00:42.312Z,0.65
2019-03-05T08:03:13.523Z,0.70
2019-03-05T08:05:44.377Z,1.32
2019-03-05T08:09:09.441Z,0.80
2019-03-05T08:11:40.470Z,0.70
2019-03-05T08:14:50.399Z,0.70
2019-03-05T08:17:21.747Z,0.90
2019-03-05T08:19:52.482Z,1.00
2019-03-05T08:22:23.214Z,0.90
2019-03-05T08:24:54.078Z,0.80
2019-03-05T08:27:25.119Z,1.30
2019-03-05T08:29:56.023Z,1.10
2019-03-05T08:32:26.747Z,0.80
2019-03-05T08:34:57.642Z,0.93
2019-03-05T08:37:28.333Z,1.00
2019-03-05T08:39:59.156Z,1.40
2019-03-05T08:42:29.994Z,1.10
2019-03-05T08:45:00.663Z,1.37
2019-03-05T08:47:31.407Z,1.40
2019-03-05T08:50:02.346Z,1.60
2019-03-05T08:52:33.216Z,0.88
2019-03-05T08:55:03.994Z,1.50
2019-03-05T08:57:34.726Z,0.90
2019-03-05T09:00:08.118Z,1.03
2019-03-05T09:02:48.114Z,0.67
2019-03-05T09:05:13.065Z,0.70
2019-03-05T09:07:44.081Z,0.80
2019-03-05T09:10:16.005Z,1.03
2019-03-05T09:12:46.706Z,0.90
2019-03-05T09:15:18.484Z,0.70
2019-03-05T09:17:49.734Z,0.70
2019-03-05T09:20:20.581Z,0.73
2019-03-05T09:22:51.493Z,0.80
2019-03-05T09:25:22.400Z,0.80
2019-03-05T09:27:53.071Z,0.60
2019-03-05T09:30:23.737Z,1.47
2019-03-05T09:32:54.631Z,0.82
2019-03-05T09:35:25.508Z,0.83
2019-03-05T09:37:56.537Z,0.75
2019-03-05T09:40:27.534Z,0.50
2019-03-05T09:42:58.783Z,1.17
2019-03-05T09:45:30.209Z,0.80
2019-03-05T09:48:00.837Z,0.60
2019-03-05T09:50:32.241Z,0.57
2019-03-05T09:53:03.584Z,1.00
2019-03-05T09:55:34.405Z,0.90
2019-03-05T09:58:08.279Z,0.80
2019-03-05T10:00:38.224Z,0.40
2019-03-05T10:03:09.016Z,0.70
2019-03-05T10:05:40.878Z,0.60
2019-03-05T10:08:11.716Z,0.63
2019-03-05T10:10:42.931Z,0.63
2019-03-05T10:13:13.577Z,1.33
2019-03-05T10:15:44.693Z,0.50
2019-03-05T10:18:15.498Z,0.70
2019-03-05T10:20:46.645Z,0.53
2019-03-05T10:23:17.546Z,0.85
2019-03-05T10:25:48.186Z,0.60
2019-03-05T10:28:18.817Z,0.40
2019-03-05T10:30:49.658Z,0.60
2019-03-05T10:33:20.838Z,0.90
2019-03-05T10:35:52.099Z,0.80
2019-03-05T10:38:22.734Z,1.40
2019-03-05T10:40:54.402Z,0.75
2019-03-05T10:43:25.037Z,0.73
2019-03-05T10:45:55.919Z,0.60
2019-03-05T10:48:26.657Z,0.70
2019-03-05T10:50:58.756Z,0.70
2019-03-05T10:53:29.988Z,0.50
2019-03-05T10:56:00.632Z,0.60
2019-03-05T10:58:34.255Z,1.10
2019-03-05T11:01:05.540Z,0.70
2019-03-05T11:03:36.234Z,0.70
2019-03-05T11:06:08.618Z,0.67
2019-03-05T11:08:40.888Z,0.80
2019-03-05T11:11:13.742Z,0.60
2019-03-05T11:13:44.148Z,0.63
2019-03-05T11:16:14.785Z,0.80
2019-03-05T11:18:45.610Z,0.70
2019-03-05T11:21:16.277Z,0.73
2019-03-05T11:23:46.918Z,0.40
2019-03-05T11:26:17.832Z,0.47
2019-03-05T11:28:48.797Z,0.50
2019-03-05T11:31:19.759Z,0.50
2019-03-05T11:33:50.943Z,0.65
2019-03-05T11:36:21.888Z,0.77
2019-03-05T11:38:52.929Z,0.68
2019-03-05T11:41:23.866Z,0.50
2019-03-05T11:43:54.816Z,0.80
2019-03-05T11:46:25.711Z,0.60
2019-03-05T11:48:57.006Z,0.50
2019-03-05T11:51:27.664Z,0.40
2019-03-05T11:53:58.327Z,0.60
2019-03-05T11:56:28.943Z,0.50
2019-03-05T11:58:59.852Z,0.77
2019-03-05T12:01:36.948Z,0.60
2019-03-05T12:04:08.112Z,0.80
2019-03-05T12:06:38.829Z,0.63
2019-03-05T12:09:09.725Z,0.72
2019-03-05T12:11:41.140Z,0.68
2019-03-05T12:14:11.875Z,0.80
2019-03-05T12:16:42.960Z,0.43
2019-03-05T12:19:13.789Z,0.80
2019-03-05T12:21:45.036Z,0.55
2019-03-05T12:24:15.827Z,0.97
2019-03-05T12:26:47.314Z,1.32
2019-03-05T12:29:17.989Z,0.60
2019-03-05T12:31:48.936Z,0.55
2019-03-05T12:34:19.874Z,0.50
2019-03-05T12:36:51.194Z,0.78
2019-03-05T12:39:22.932Z,0.70
2019-03-05T12:41:53.579Z,0.70
2019-03-05T12:44:24.270Z,0.70
2019-03-05T12:46:54.957Z,0.80
2019-03-05T12:49:25.962Z,0.57
2019-03-05T12:51:57.118Z,1.00
2019-03-05T12:54:27.907Z,0.90
2019-03-05T12:56:59.072Z,0.80
2019-03-05T12:59:30.027Z,1.67
2019-03-05T13:02:00.962Z,0.90
2019-03-05T13:04:31.891Z,0.50
2019-03-05T13:07:02.523Z,1.30
2019-03-05T13:09:33.196Z,0.60
2019-03-05T13:12:04.022Z,1.43
2019-03-05T13:14:38.310Z,0.50
2019-03-05T13:17:07.058Z,0.60
2019-03-05T13:19:38.812Z,0.40
2019-03-05T13:22:09.631Z,0.50
2019-03-05T13:24:41.338Z,0.50
2019-03-05T13:27:12.128Z,0.57
2019-03-05T13:29:43.254Z,0.40
2019-03-05T13:32:16.831Z,0.40
2019-03-05T13:34:46.464Z,0.40
2019-03-05T13:37:17.240Z,0.40
2019-03-05T13:39:48.022Z,0.40
2019-03-05T13:42:18.693Z,0.30
2019-03-05T13:44:49.377Z,0.28
2019-03-05T13:47:20.198Z,0.53
2019-03-05T13:50:38.746Z,0.37
2019-03-05T13:54:05.814Z,0.50
2019-03-05T13:57:31.918Z,0.57
2019-03-05T14:00:02.520Z,0.80
2019-03-05T14:02:54.146Z,0.50
2019-03-05T14:06:25.365Z,0.50
2019-03-05T14:09:20.636Z,0.50
2019-03-05T14:11:53.410Z,0.42
2019-03-05T14:14:29.337Z,0.30
2019-03-05T14:17:25.744Z,0.60
2019-03-05T14:19:56.545Z,0.57
2019-03-05T14:22:27.197Z,1.20
2019-03-05T14:25:02.197Z,0.90
2019-03-05T14:27:30.496Z,0.77
2019-03-05T14:30:02.729Z,0.90
2019-03-05T14:32:33.538Z,0.63
2019-03-05T14:35:11.891Z,0.73
2019-03-05T14:37:42.889Z,0.90
2019-03-05T14:40:24.470Z,0.40
2019-03-05T14:42:54.303Z,0.70
2019-03-05T14:45:28.581Z,0.60
2019-03-05T14:48:00.999Z,0.50
2019-03-05T14:50:31.694Z,0.90
2019-03-05T14:53:02.560Z,0.60
2019-03-05T14:55:33.187Z,0.60
2019-03-05T14:58:04.220Z,0.40
2019-03-05T15:00:35.226Z,0.50
2019-03-05T15:03:06.181Z,0.45
2019-03-05T15:05:36.808Z,0.70
2019-03-05T15:08:07.749Z,0.50
2019-03-05T15:10:38.456Z,0.40
2019-03-05T15:13:16.237Z,1.00
2019-03-05T15:15:41.926Z,0.97
2019-03-05T15:18:12.558Z,0.60
2019-03-05T15:20:43.664Z,0.60
2019-03-05T15:23:14.303Z,0.50
2019-03-05T15:25:45.268Z,1.07
2019-03-05T15:28:15.881Z,1.30
2019-03-05T15:30:46.818Z,0.93
2019-03-05T15:33:17.452Z,1.00
2019-03-05T15:35:48.515Z,0.80
2019-03-05T15:38:19.534Z,0.67
2019-03-05T15:40:50.442Z,0.57
2019-03-05T15:43:21.428Z,1.07
2019-03-05T15:45:52.448Z,0.97
2019-03-05T15:48:23.395Z,0.60
2019-03-05T15:50:54.088Z,1.15
2019-03-05T15:53:27.665Z,0.83
2019-03-05T15:55:57.431Z,1.00
2019-03-05T15:58:28.337Z,0.97
2019-03-05T16:00:59.263Z,1.07
2019-03-05T16:03:29.924Z,0.90
2019-03-05T16:06:00.576Z,0.70
2019-03-05T16:08:32.657Z,1.20
2019-03-05T16:11:03.477Z,1.00
2019-03-05T16:13:34.366Z,1.10
2019-03-05T16:16:05.425Z,0.98
2019-03-05T16:18:39.088Z,1.00
2019-03-05T16:21:08.627Z,1.17
2019-03-05T16:23:41.021Z,1.17
2019-03-05T16:26:11.766Z,0.90
2019-03-05T16:28:43.464Z,1.20
2019-03-05T16:31:32.237Z,1.30
2019-03-05T16:34:13.111Z,1.10
2019-03-05T16:37:02.127Z,1.20
2019-03-05T16:39:38.734Z,1.37
2019-03-05T16:42:25.094Z,1.50
2019-03-05T16:45:23.658Z,1.10
2019-03-05T16:48:19.329Z,1.30
2019-03-05T16:51:09.124Z,1.00
2019-03-05T16:54:00.050Z,1.10
2019-03-05T16:57:01.484Z,1.13
2019-03-05T17:00:00.400Z,1.10
2019-03-05T17:02:58.777Z,1.30
2019-03-05T17:05:57.537Z,1.40
2019-03-05T17:08:47.361Z,1.10
2019-03-05T17:11:26.031Z,1.43
2019-03-05T17:13:56.934Z,1.43
2019-03-05T17:16:27.702Z,1.40
2019-03-05T17:18:58.668Z,1.77
2019-03-05T17:21:29.658Z,2.40
2019-03-05T17:24:00.730Z,1.40
2019-03-05T17:26:31.734Z,1.73
2019-03-05T17:29:02.647Z,1.90
2019-03-05T17:31:33.635Z,1.93
2019-03-05T17:34:04.534Z,1.70
2019-03-05T17:36:35.131Z,1.60
2019-03-05T17:39:10.115Z,1.70
2019-03-05T17:41:41.928Z,1.35
2019-03-05T17:44:12.723Z,1.20
2019-03-05T17:46:43.708Z,1.47
2019-03-05T17:49:14.610Z,1.97
2019-03-05T17:51:45.810Z,2.00
2019-03-05T17:54:16.725Z,1.90
2019-03-05T17:56:47.866Z,1.77
2019-03-05T17:59:18.782Z,1.50
2019-03-05T18:01:49.670Z,1.40
2019-03-05T18:04:20.656Z,1.90
2019-03-05T18:06:51.904Z,1.87
2019-03-05T18:09:22.648Z,2.30
2019-03-05T18:11:53.876Z,2.10
2019-03-05T18:14:24.820Z,2.23
2019-03-05T18:16:55.812Z,2.53
2019-03-05T18:19:26.772Z,2.37
2019-03-05T18:21:58.024Z,2.30
2019-03-05T18:24:28.884Z,2.70
2019-03-05T18:26:59.633Z,2.27
2019-03-05T18:29:30.309Z,2.83
2019-03-05T18:32:01.004Z,2.17
2019-03-05T18:34:31.750Z,2.73
2019-03-05T18:37:02.880Z,2.30
2019-03-05T18:39:33.739Z,2.77
2019-03-05T18:42:04.725Z,3.15
2019-03-05T18:44:35.403Z,2.70
2019-03-05T18:47:06.573Z,3.60
2019-03-05T18:49:40.218Z,3.50
2019-03-05T18:52:11.057Z,4.37
2019-03-05T18:54:42.169Z,4.53
2019-03-05T18:57:13.107Z,4.60
2019-03-05T18:59:44.015Z,4.07
2019-03-05T19:02:15.100Z,4.20
2019-03-05T19:04:46.011Z,3.65
2019-03-05T19:07:16.907Z,4.70
2019-03-05T19:09:48.316Z,4.45
2019-03-05T19:12:19.029Z,4.93
2019-03-05T19:14:50.191Z,4.12
2019-03-05T19:17:21.088Z,4.43
2019-03-05T19:19:52.282Z,4.35
2019-03-05T19:22:23.346Z,4.50
2019-03-05T19:24:54.135Z,4.15
2019-03-05T19:27:26.264Z,4.47
2019-03-05T19:29:57.619Z,3.90
2019-03-05T19:32:28.398Z,4.40
2019-03-05T19:34:59.103Z,3.63
2019-03-05T19:37:30.053Z,4.23
2019-03-05T19:40:00.875Z,4.67
2019-03-05T19:42:31.830Z,4.47
2019-03-05T19:45:02.517Z,5.07
2019-03-05T19:47:33.240Z,4.20
2019-03-05T19:50:04.142Z,4.77
2019-03-05T19:52:35.026Z,4.90
2019-03-05T19:55:07.690Z,4.57
2019-03-05T19:57:38.412Z,4.53
2019-03-05T20:00:15.124Z,4.77
2019-03-05T20:02:46.376Z,4.30
2019-03-05T20:05:18.114Z,4.63
2019-03-05T20:07:49.193Z,4.70
2019-03-05T20:10:21.435Z,4.13
2019-03-05T20:12:52.380Z,4.15
2019-03-05T20:15:23.023Z,4.33
2019-03-05T20:17:58.961Z,3.80
2019-03-05T20:20:26.762Z,3.37
2019-03-05T20:22:57.533Z,3.53
2019-03-05T20:25:28.136Z,3.30
2019-03-05T20:27:59.055Z,3.30
2019-03-05T20:30:30.031Z,3.13
2019-03-05T20:33:00.956Z,2.90
2019-03-05T20:35:31.633Z,3.17
2019-03-05T20:38:02.325Z,3.10
2019-03-05T20:40:33.270Z,2.97
2019-03-05T20:43:04.170Z,3.30
2019-03-05T20:45:35.367Z,3.07
2019-03-05T20:48:06.484Z,3.77
2019-03-05T20:50:37.482Z,3.40
2019-03-05T20:53:08.208Z,3.83
2019-03-05T20:55:39.078Z,3.60
2019-03-05T20:58:09.949Z,4.20
2019-03-05T21:00:42.782Z,3.66
2019-03-05T21:03:13.532Z,4.30
2019-03-05T21:05:45.105Z,3.57
2019-03-05T21:08:15.743Z,4.07
2019-03-05T21:10:46.517Z,4.30
2019-03-05T21:13:17.235Z,4.10
2019-03-05T21:15:48.292Z,4.65
2019-03-05T21:18:19.661Z,4.60
2019-03-05T21:20:50.492Z,4.87
2019-03-05T21:23:23.446Z,4.60
2019-03-05T21:25:54.233Z,4.83
2019-03-05T21:28:25.139Z,5.50
2019-03-05T21:30:56.493Z,4.75
2019-03-05T21:33:27.484Z,5.17
2019-03-05T21:35:58.687Z,4.62
2019-03-05T21:38:29.412Z,4.57
2019-03-05T21:41:00.241Z,4.75
2019-03-05T21:43:31.265Z,4.47
2019-03-05T21:46:06.926Z,4.03
2019-03-05T21:48:37.620Z,4.80
2019-03-05T21:51:08.252Z,5.03
2019-03-05T21:53:39.180Z,4.97
2019-03-05T21:56:09.861Z,4.83
2019-03-05T21:58:40.511Z,4.67
2019-03-05T22:01:11.244Z,4.97
2019-03-05T22:03:42.637Z,5.00
2019-03-05T22:06:13.334Z,5.10
2019-03-05T22:08:44.417Z,4.67
2019-03-05T22:11:15.240Z,4.57
2019-03-05T22:13:46.189Z,4.12
2019-03-05T22:16:17.197Z,4.17
2019-03-05T22:18:48.675Z,4.20
2019-03-05T22:21:19.337Z,3.67
2019-03-05T22:23:50.519Z,3.60
2019-03-05T22:26:21.408Z,3.67
2019-03-05T22:28:52.339Z,3.80
2019-03-05T22:31:23.187Z,3.97
2019-03-05T22:33:54.414Z,3.45
2019-03-05T22:36:25.277Z,3.87
2019-03-05T22:38:56.545Z,3.75
2019-03-05T22:41:27.373Z,3.90
2019-03-05T22:43:58.249Z,3.62
2019-03-05T22:46:29.258Z,4.50
2019-03-05T22:49:00.575Z,3.58
2019-03-05T22:51:31.269Z,3.90
2019-03-05T22:54:02.185Z,3.87
2019-03-05T22:56:32.813Z,4.23
2019-03-05T22:59:03.539Z,4.20
2019-03-05T23:01:43.493Z,4.17
2019-03-05T23:04:19.574Z,3.80
2019-03-05T23:06:50.601Z,3.77
2019-03-05T23:09:25.891Z,4.23
2019-03-05T23:11:56.762Z,4.00
2019-03-05T23:14:27.458Z,3.77
2019-03-05T23:16:58.394Z,3.87
2019-03-05T23:19:30.287Z,3.53
2019-03-05T23:22:00.888Z,4.12
2019-03-05T23:24:32.310Z,3.20
2019-03-05T23:27:03.081Z,3.13
2019-03-05T23:29:45.268Z,3.47
2019-03-05T23:32:17.803Z,2.60
2019-03-05T23:34:48.462Z,3.27
2019-03-05T23:37:19.408Z,3.65
2019-03-05T23:39:50.595Z,3.37
2019-03-05T23:42:21.823Z,3.60
2019-03-05T23:44:52.577Z,3.35
2019-03-05T23:47:23.502Z,3.30
2019-03-05T23:49:54.494Z,3.43
2019-03-05T23:52:25.546Z,3.80
2019-03-05T23:54:56.696Z,3.17
2019-03-05T23:57:27.376Z,3.37
2019-03-05T23:59:58.512Z,3.15
